sensor_id;sensor_type;location;lat;lon;timestamp;P1;durP1;ratioP1;P2;durP2;ratioP2
78563;SDS011;67856;47.754;19.088;2023-03-01T00:02:58;5.18;;;3.30;;
78563;SDS011;67856;47.754;19.088;2023-03-01T00:06:01;6.10;;;3.80;;
78563;SDS011;67856;47.754;19.088;2023-03-01T00:09:04;7.27;;;3.87;;
78563;SDS011;67856;47.754;19.088;2023-03-01T00:12:06;6.10;;;3.42;;
78563;SDS011;67856;47.754;19.088;2023-03-01T00:15:09;5.53;;;3.25;;
78563;SDS011;67856;47.754;19.088;2023-03-01T00:18:12;8.13;;;4.30;;
78563;SDS011;67856;47.754;19.088;2023-03-01T00:21:14;5.13;;;3.30;;
78563;SDS011;67856;47.754;19.088;2023-03-01T00:24:16;6.30;;;3.80;;
78563;SDS011;67856;47.754;19.088;2023-03-01T00:27:19;6.30;;;3.45;;
78563;SDS011;67856;47.754;19.088;2023-03-01T00:30:22;5.50;;;3.50;;
78563;SDS011;67856;47.754;19.088;2023-03-01T00:33:24;6.18;;;3.45;;
78563;SDS011;67856;47.754;19.088;2023-03-01T00:36:31;5.77;;;3.67;;
78563;SDS011;67856;47.754;19.088;2023-03-01T00:39:35;6.63;;;3.60;;
78563;SDS011;67856;47.754;19.088;2023-03-01T00:42:38;6.95;;;3.90;;
78563;SDS011;67856;47.754;19.088;2023-03-01T00:45:40;6.47;;;3.88;;
78563;SDS011;67856;47.754;19.088;2023-03-01T00:48:43;6.25;;;3.50;;
78563;SDS011;67856;47.754;19.088;2023-03-01T00:51:46;7.07;;;3.57;;
78563;SDS011;67856;47.754;19.088;2023-03-01T00:54:48;7.07;;;3.40;;
78563;SDS011;67856;47.754;19.088;2023-03-01T00:57:54;4.78;;;3.20;;
78563;SDS011;67856;47.754;19.088;2023-03-01T01:00:56;6.15;;;3.40;;
78563;SDS011;67856;47.754;19.088;2023-03-01T01:04:00;5.30;;;3.10;;
78563;SDS011;67856;47.754;19.088;2023-03-01T01:07:06;5.10;;;3.37;;
78563;SDS011;67856;47.754;19.088;2023-03-01T01:10:09;6.43;;;3.50;;
78563;SDS011;67856;47.754;19.088;2023-03-01T01:13:19;5.05;;;3.13;;
78563;SDS011;67856;47.754;19.088;2023-03-01T01:16:23;4.82;;;2.92;;
78563;SDS011;67856;47.754;19.088;2023-03-01T01:19:26;5.22;;;2.83;;
78563;SDS011;67856;47.754;19.088;2023-03-01T01:22:29;5.43;;;3.50;;
78563;SDS011;67856;47.754;19.088;2023-03-01T01:25:33;5.43;;;3.53;;
78563;SDS011;67856;47.754;19.088;2023-03-01T01:28:37;4.93;;;3.38;;
78563;SDS011;67856;47.754;19.088;2023-03-01T01:31:40;5.57;;;3.10;;
78563;SDS011;67856;47.754;19.088;2023-03-01T01:34:43;6.97;;;3.63;;
78563;SDS011;67856;47.754;19.088;2023-03-01T01:37:46;11.87;;;4.57;;
78563;SDS011;67856;47.754;19.088;2023-03-01T01:40:49;5.87;;;3.63;;
78563;SDS011;67856;47.754;19.088;2023-03-01T01:47:22;6.05;;;3.83;;
78563;SDS011;67856;47.754;19.088;2023-03-01T01:50:25;6.28;;;3.88;;
78563;SDS011;67856;47.754;19.088;2023-03-01T01:53:27;5.27;;;3.23;;
78563;SDS011;67856;47.754;19.088;2023-03-01T01:56:31;9.47;;;3.73;;
78563;SDS011;67856;47.754;19.088;2023-03-01T01:59:33;6.25;;;4.28;;
78563;SDS011;67856;47.754;19.088;2023-03-01T02:02:36;7.30;;;3.70;;
78563;SDS011;67856;47.754;19.088;2023-03-01T02:09:00;5.63;;;3.83;;
78563;SDS011;67856;47.754;19.088;2023-03-01T02:12:07;6.70;;;3.97;;
78563;SDS011;67856;47.754;19.088;2023-03-01T02:15:10;5.50;;;3.28;;
78563;SDS011;67856;47.754;19.088;2023-03-01T02:18:12;5.43;;;3.22;;
78563;SDS011;67856;47.754;19.088;2023-03-01T02:31:01;5.93;;;3.20;;
78563;SDS011;67856;47.754;19.088;2023-03-01T02:34:24;5.90;;;3.72;;
78563;SDS011;67856;47.754;19.088;2023-03-01T02:37:31;6.13;;;3.75;;
78563;SDS011;67856;47.754;19.088;2023-03-01T02:40:33;6.10;;;3.27;;
78563;SDS011;67856;47.754;19.088;2023-03-01T02:43:36;6.13;;;3.63;;
78563;SDS011;67856;47.754;19.088;2023-03-01T02:46:46;5.65;;;3.55;;
78563;SDS011;67856;47.754;19.088;2023-03-01T02:49:51;5.97;;;3.60;;
78563;SDS011;67856;47.754;19.088;2023-03-01T02:56:19;7.27;;;3.07;;
78563;SDS011;67856;47.754;19.088;2023-03-01T02:59:22;17.83;;;3.97;;
78563;SDS011;67856;47.754;19.088;2023-03-01T03:02:29;5.55;;;3.20;;
78563;SDS011;67856;47.754;19.088;2023-03-01T03:05:47;6.80;;;3.47;;
78563;SDS011;67856;47.754;19.088;2023-03-01T03:08:50;5.60;;;3.30;;
78563;SDS011;67856;47.754;19.088;2023-03-01T03:11:53;7.00;;;3.40;;
78563;SDS011;67856;47.754;19.088;2023-03-01T03:14:55;6.30;;;3.30;;
78563;SDS011;67856;47.754;19.088;2023-03-01T03:17:58;5.00;;;3.15;;
78563;SDS011;67856;47.754;19.088;2023-03-01T03:21:01;4.93;;;3.38;;
78563;SDS011;67856;47.754;19.088;2023-03-01T03:24:03;7.78;;;2.67;;
78563;SDS011;67856;47.754;19.088;2023-03-01T03:27:06;5.97;;;3.33;;
78563;SDS011;67856;47.754;19.088;2023-03-01T03:30:10;6.37;;;3.30;;
78563;SDS011;67856;47.754;19.088;2023-03-01T03:33:14;5.30;;;3.30;;
78563;SDS011;67856;47.754;19.088;2023-03-01T03:36:17;7.18;;;3.33;;
78563;SDS011;67856;47.754;19.088;2023-03-01T03:39:23;5.80;;;2.90;;
78563;SDS011;67856;47.754;19.088;2023-03-01T03:42:25;4.50;;;2.90;;
78563;SDS011;67856;47.754;19.088;2023-03-01T03:45:28;5.67;;;3.10;;
78563;SDS011;67856;47.754;19.088;2023-03-01T03:48:32;5.45;;;3.30;;
78563;SDS011;67856;47.754;19.088;2023-03-01T03:51:36;6.00;;;2.85;;
78563;SDS011;67856;47.754;19.088;2023-03-01T03:54:41;4.32;;;2.83;;
78563;SDS011;67856;47.754;19.088;2023-03-01T03:57:44;5.37;;;3.30;;
78563;SDS011;67856;47.754;19.088;2023-03-01T04:00:54;5.33;;;2.90;;
78563;SDS011;67856;47.754;19.088;2023-03-01T04:03:58;6.40;;;2.95;;
78563;SDS011;67856;47.754;19.088;2023-03-01T04:07:06;4.40;;;2.90;;
78563;SDS011;67856;47.754;19.088;2023-03-01T04:10:09;5.63;;;2.90;;
78563;SDS011;67856;47.754;19.088;2023-03-01T04:13:14;4.37;;;2.53;;
78563;SDS011;67856;47.754;19.088;2023-03-01T04:16:18;4.73;;;2.47;;
78563;SDS011;67856;47.754;19.088;2023-03-01T04:19:21;4.32;;;2.72;;
78563;SDS011;67856;47.754;19.088;2023-03-01T04:22:23;4.53;;;2.42;;
78563;SDS011;67856;47.754;19.088;2023-03-01T04:25:31;5.07;;;2.80;;
78563;SDS011;67856;47.754;19.088;2023-03-01T04:28:35;4.10;;;2.60;;
78563;SDS011;67856;47.754;19.088;2023-03-01T04:31:39;3.93;;;2.50;;
78563;SDS011;67856;47.754;19.088;2023-03-01T04:34:41;3.72;;;2.50;;
78563;SDS011;67856;47.754;19.088;2023-03-01T04:37:43;3.83;;;2.60;;
78563;SDS011;67856;47.754;19.088;2023-03-01T04:40:47;3.88;;;2.60;;
78563;SDS011;67856;47.754;19.088;2023-03-01T04:43:49;4.60;;;2.43;;
78563;SDS011;67856;47.754;19.088;2023-03-01T04:46:52;4.00;;;2.40;;
78563;SDS011;67856;47.754;19.088;2023-03-01T04:49:54;2.78;;;2.10;;
78563;SDS011;67856;47.754;19.088;2023-03-01T04:52:56;3.30;;;2.30;;
78563;SDS011;67856;47.754;19.088;2023-03-01T04:56:02;3.22;;;2.15;;
78563;SDS011;67856;47.754;19.088;2023-03-01T04:59:04;3.27;;;2.17;;
78563;SDS011;67856;47.754;19.088;2023-03-01T05:02:07;3.57;;;2.60;;
78563;SDS011;67856;47.754;19.088;2023-03-01T05:05:10;2.95;;;2.13;;
78563;SDS011;67856;47.754;19.088;2023-03-01T05:08:13;4.35;;;2.60;;
78563;SDS011;67856;47.754;19.088;2023-03-01T05:11:19;3.22;;;2.30;;
78563;SDS011;67856;47.754;19.088;2023-03-01T05:14:21;6.63;;;2.90;;
78563;SDS011;67856;47.754;19.088;2023-03-01T05:17:24;7.37;;;3.07;;
78563;SDS011;67856;47.754;19.088;2023-03-01T05:20:27;8.23;;;2.97;;
78563;SDS011;67856;47.754;19.088;2023-03-01T05:23:32;9.48;;;3.25;;
78563;SDS011;67856;47.754;19.088;2023-03-01T05:26:34;8.25;;;3.33;;
78563;SDS011;67856;47.754;19.088;2023-03-01T05:29:42;5.73;;;3.00;;
78563;SDS011;67856;47.754;19.088;2023-03-01T05:32:46;8.57;;;3.17;;
78563;SDS011;67856;47.754;19.088;2023-03-01T05:35:50;7.30;;;3.35;;
78563;SDS011;67856;47.754;19.088;2023-03-01T05:38:53;5.95;;;3.08;;
78563;SDS011;67856;47.754;19.088;2023-03-01T05:41:57;6.55;;;3.33;;
78563;SDS011;67856;47.754;19.088;2023-03-01T05:45:00;6.43;;;2.97;;
78563;SDS011;67856;47.754;19.088;2023-03-01T05:48:02;5.87;;;3.27;;
78563;SDS011;67856;47.754;19.088;2023-03-01T05:51:05;5.00;;;2.90;;
78563;SDS011;67856;47.754;19.088;2023-03-01T05:54:08;6.20;;;3.03;;
78563;SDS011;67856;47.754;19.088;2023-03-01T05:57:11;6.53;;;3.03;;
78563;SDS011;67856;47.754;19.088;2023-03-01T06:00:14;6.83;;;3.10;;
78563;SDS011;67856;47.754;19.088;2023-03-01T06:03:19;5.53;;;3.10;;
78563;SDS011;67856;47.754;19.088;2023-03-01T06:06:21;8.77;;;3.08;;
78563;SDS011;67856;47.754;19.088;2023-03-01T06:09:23;3.83;;;2.83;;
78563;SDS011;67856;47.754;19.088;2023-03-01T06:12:31;7.00;;;3.00;;
78563;SDS011;67856;47.754;19.088;2023-03-01T06:15:37;5.57;;;3.20;;
78563;SDS011;67856;47.754;19.088;2023-03-01T06:18:39;5.27;;;3.37;;
78563;SDS011;67856;47.754;19.088;2023-03-01T06:21:42;10.63;;;3.78;;
78563;SDS011;67856;47.754;19.088;2023-03-01T06:24:45;6.72;;;3.25;;
78563;SDS011;67856;47.754;19.088;2023-03-01T06:27:47;9.32;;;3.55;;
78563;SDS011;67856;47.754;19.088;2023-03-01T06:30:54;4.97;;;3.10;;
78563;SDS011;67856;47.754;19.088;2023-03-01T06:33:56;6.03;;;2.70;;
78563;SDS011;67856;47.754;19.088;2023-03-01T06:36:59;6.47;;;3.13;;
78563;SDS011;67856;47.754;19.088;2023-03-01T06:40:02;6.82;;;3.30;;
78563;SDS011;67856;47.754;19.088;2023-03-01T06:43:10;8.35;;;3.40;;
78563;SDS011;67856;47.754;19.088;2023-03-01T06:46:12;5.93;;;3.40;;
78563;SDS011;67856;47.754;19.088;2023-03-01T06:49:15;7.33;;;3.50;;
78563;SDS011;67856;47.754;19.088;2023-03-01T06:52:19;5.57;;;3.38;;
78563;SDS011;67856;47.754;19.088;2023-03-01T06:55:22;7.38;;;3.83;;
78563;SDS011;67856;47.754;19.088;2023-03-01T06:58:24;17.13;;;5.18;;
78563;SDS011;67856;47.754;19.088;2023-03-01T07:01:26;10.10;;;4.33;;
78563;SDS011;67856;47.754;19.088;2023-03-01T07:04:29;16.53;;;4.33;;
78563;SDS011;67856;47.754;19.088;2023-03-01T07:07:34;20.83;;;4.75;;
78563;SDS011;67856;47.754;19.088;2023-03-01T07:10:37;10.68;;;4.60;;
78563;SDS011;67856;47.754;19.088;2023-03-01T07:13:39;15.65;;;4.43;;
78563;SDS011;67856;47.754;19.088;2023-03-01T07:16:44;15.70;;;5.50;;
78563;SDS011;67856;47.754;19.088;2023-03-01T07:19:46;16.37;;;4.93;;
78563;SDS011;67856;47.754;19.088;2023-03-01T07:22:49;17.17;;;4.60;;
78563;SDS011;67856;47.754;19.088;2023-03-01T07:25:52;11.88;;;4.57;;
78563;SDS011;67856;47.754;19.088;2023-03-01T07:28:55;11.32;;;4.68;;
78563;SDS011;67856;47.754;19.088;2023-03-01T07:31:57;17.83;;;5.00;;
78563;SDS011;67856;47.754;19.088;2023-03-01T07:35:00;21.27;;;4.70;;
78563;SDS011;67856;47.754;19.088;2023-03-01T07:38:03;11.75;;;4.75;;
78563;SDS011;67856;47.754;19.088;2023-03-01T07:41:05;12.68;;;4.50;;
78563;SDS011;67856;47.754;19.088;2023-03-01T07:44:08;13.55;;;4.63;;
78563;SDS011;67856;47.754;19.088;2023-03-01T07:47:11;36.13;;;6.50;;
78563;SDS011;67856;47.754;19.088;2023-03-01T07:50:13;45.40;;;6.80;;
78563;SDS011;67856;47.754;19.088;2023-03-01T07:53:17;43.95;;;6.70;;
78563;SDS011;67856;47.754;19.088;2023-03-01T07:56:19;31.38;;;5.85;;
78563;SDS011;67856;47.754;19.088;2023-03-01T07:59:23;33.97;;;6.32;;
78563;SDS011;67856;47.754;19.088;2023-03-01T08:02:31;37.17;;;5.57;;
78563;SDS011;67856;47.754;19.088;2023-03-01T08:05:33;33.13;;;5.70;;
78563;SDS011;67856;47.754;19.088;2023-03-01T08:08:36;26.10;;;5.35;;
78563;SDS011;67856;47.754;19.088;2023-03-01T08:11:38;24.48;;;5.45;;
78563;SDS011;67856;47.754;19.088;2023-03-01T08:14:41;23.80;;;5.00;;
78563;SDS011;67856;47.754;19.088;2023-03-01T08:17:44;25.02;;;4.88;;
78563;SDS011;67856;47.754;19.088;2023-03-01T08:20:46;19.07;;;4.90;;
78563;SDS011;67856;47.754;19.088;2023-03-01T08:23:49;27.13;;;5.28;;
78563;SDS011;67856;47.754;19.088;2023-03-01T08:26:52;21.70;;;5.18;;
78563;SDS011;67856;47.754;19.088;2023-03-01T08:29:54;22.95;;;4.82;;
78563;SDS011;67856;47.754;19.088;2023-03-01T08:32:57;20.43;;;4.87;;
78563;SDS011;67856;47.754;19.088;2023-03-01T08:36:03;22.30;;;5.03;;
78563;SDS011;67856;47.754;19.088;2023-03-01T08:39:09;21.13;;;5.25;;
78563;SDS011;67856;47.754;19.088;2023-03-01T08:42:13;20.65;;;5.03;;
78563;SDS011;67856;47.754;19.088;2023-03-01T08:45:15;18.80;;;5.10;;
78563;SDS011;67856;47.754;19.088;2023-03-01T08:48:20;19.48;;;4.97;;
78563;SDS011;67856;47.754;19.088;2023-03-01T08:51:24;26.47;;;5.13;;
78563;SDS011;67856;47.754;19.088;2023-03-01T08:54:27;22.67;;;5.30;;
78563;SDS011;67856;47.754;19.088;2023-03-01T08:57:34;19.50;;;4.70;;
78563;SDS011;67856;47.754;19.088;2023-03-01T09:00:37;15.65;;;4.72;;
78563;SDS011;67856;47.754;19.088;2023-03-01T09:03:42;21.40;;;4.90;;
78563;SDS011;67856;47.754;19.088;2023-03-01T09:06:45;14.73;;;4.60;;
78563;SDS011;67856;47.754;19.088;2023-03-01T09:09:49;22.00;;;4.57;;
78563;SDS011;67856;47.754;19.088;2023-03-01T09:12:55;18.30;;;5.28;;
78563;SDS011;67856;47.754;19.088;2023-03-01T09:15:59;21.13;;;5.15;;
78563;SDS011;67856;47.754;19.088;2023-03-01T09:19:03;17.47;;;5.10;;
78563;SDS011;67856;47.754;19.088;2023-03-01T09:22:05;15.80;;;4.87;;
78563;SDS011;67856;47.754;19.088;2023-03-01T09:25:08;16.45;;;5.28;;
78563;SDS011;67856;47.754;19.088;2023-03-01T09:28:11;18.77;;;5.07;;
78563;SDS011;67856;47.754;19.088;2023-03-01T09:31:29;27.27;;;5.97;;
78563;SDS011;67856;47.754;19.088;2023-03-01T09:34:34;40.40;;;6.77;;
78563;SDS011;67856;47.754;19.088;2023-03-01T09:37:57;23.23;;;5.70;;
78563;SDS011;67856;47.754;19.088;2023-03-01T09:41:00;23.45;;;5.10;;
78563;SDS011;67856;47.754;19.088;2023-03-01T09:47:29;21.60;;;5.10;;
78563;SDS011;67856;47.754;19.088;2023-03-01T09:50:36;18.93;;;5.40;;
78563;SDS011;67856;47.754;19.088;2023-03-01T09:53:41;18.43;;;4.77;;
78563;SDS011;67856;47.754;19.088;2023-03-01T09:56:45;24.67;;;5.00;;
78563;SDS011;67856;47.754;19.088;2023-03-01T10:06:51;26.77;;;5.40;;
78563;SDS011;67856;47.754;19.088;2023-03-01T10:10:05;22.50;;;5.07;;
78563;SDS011;67856;47.754;19.088;2023-03-01T10:13:33;25.42;;;4.55;;
78563;SDS011;67856;47.754;19.088;2023-03-01T10:19:43;15.50;;;5.00;;
78563;SDS011;67856;47.754;19.088;2023-03-01T10:22:47;19.33;;;5.13;;
78563;SDS011;67856;47.754;19.088;2023-03-01T10:29:12;17.85;;;4.80;;
78563;SDS011;67856;47.754;19.088;2023-03-01T10:32:16;19.45;;;4.80;;
78563;SDS011;67856;47.754;19.088;2023-03-01T10:35:24;15.98;;;4.28;;
78563;SDS011;67856;47.754;19.088;2023-03-01T10:38:30;15.83;;;4.70;;
78563;SDS011;67856;47.754;19.088;2023-03-01T10:41:34;20.33;;;4.50;;
78563;SDS011;67856;47.754;19.088;2023-03-01T10:47:46;22.05;;;4.50;;
78563;SDS011;67856;47.754;19.088;2023-03-01T10:50:49;18.63;;;4.47;;
78563;SDS011;67856;47.754;19.088;2023-03-01T10:53:53;12.83;;;4.00;;
78563;SDS011;67856;47.754;19.088;2023-03-01T10:56:57;13.60;;;4.60;;
78563;SDS011;67856;47.754;19.088;2023-03-01T11:00:13;13.85;;;4.35;;
78563;SDS011;67856;47.754;19.088;2023-03-01T11:06:30;16.15;;;4.68;;
78563;SDS011;67856;47.754;19.088;2023-03-01T11:09:33;17.23;;;4.47;;
78563;SDS011;67856;47.754;19.088;2023-03-01T11:12:41;15.33;;;4.33;;
78563;SDS011;67856;47.754;19.088;2023-03-01T11:15:58;19.35;;;4.70;;
78563;SDS011;67856;47.754;19.088;2023-03-01T11:22:12;13.18;;;5.00;;
78563;SDS011;67856;47.754;19.088;2023-03-01T11:25:17;15.30;;;4.50;;
78563;SDS011;67856;47.754;19.088;2023-03-01T11:28:49;18.33;;;4.20;;
78563;SDS011;67856;47.754;19.088;2023-03-01T11:31:54;15.57;;;4.70;;
78563;SDS011;67856;47.754;19.088;2023-03-01T11:35:02;11.77;;;4.43;;
78563;SDS011;67856;47.754;19.088;2023-03-01T11:38:21;16.83;;;4.18;;
78563;SDS011;67856;47.754;19.088;2023-03-01T11:41:26;20.23;;;4.40;;
78563;SDS011;67856;47.754;19.088;2023-03-01T11:44:33;17.10;;;4.20;;
78563;SDS011;67856;47.754;19.088;2023-03-01T11:47:55;10.88;;;4.00;;
78563;SDS011;67856;47.754;19.088;2023-03-01T11:51:02;16.85;;;4.43;;
78563;SDS011;67856;47.754;19.088;2023-03-01T12:17:54;10.97;;;4.17;;
78563;SDS011;67856;47.754;19.088;2023-03-01T12:30:52;10.15;;;3.55;;
78563;SDS011;67856;47.754;19.088;2023-03-01T12:34:11;10.13;;;3.60;;
78563;SDS011;67856;47.754;19.088;2023-03-01T12:37:40;13.02;;;4.03;;
78563;SDS011;67856;47.754;19.088;2023-03-01T12:44:23;14.02;;;3.53;;
78563;SDS011;67856;47.754;19.088;2023-03-01T12:51:14;17.20;;;3.80;;
78563;SDS011;67856;47.754;19.088;2023-03-01T12:54:21;12.50;;;3.70;;
78563;SDS011;67856;47.754;19.088;2023-03-01T12:57:31;12.73;;;3.60;;
78563;SDS011;67856;47.754;19.088;2023-03-01T13:00:43;12.93;;;3.55;;
78563;SDS011;67856;47.754;19.088;2023-03-01T13:10:40;15.90;;;4.15;;
78563;SDS011;67856;47.754;19.088;2023-03-01T13:13:43;17.30;;;4.38;;
78563;SDS011;67856;47.754;19.088;2023-03-01T13:16:45;15.13;;;4.15;;
78563;SDS011;67856;47.754;19.088;2023-03-01T13:19:57;15.80;;;4.20;;
78563;SDS011;67856;47.754;19.088;2023-03-01T13:23:05;14.93;;;4.43;;
78563;SDS011;67856;47.754;19.088;2023-03-01T13:26:10;14.50;;;4.45;;
78563;SDS011;67856;47.754;19.088;2023-03-01T13:29:25;15.32;;;4.30;;
78563;SDS011;67856;47.754;19.088;2023-03-01T13:32:29;20.35;;;4.70;;
78563;SDS011;67856;47.754;19.088;2023-03-01T13:35:49;20.67;;;4.13;;
78563;SDS011;67856;47.754;19.088;2023-03-01T13:42:01;23.83;;;4.50;;
78563;SDS011;67856;47.754;19.088;2023-03-01T13:45:15;17.15;;;4.07;;
78563;SDS011;67856;47.754;19.088;2023-03-01T13:51:25;14.60;;;4.13;;
78563;SDS011;67856;47.754;19.088;2023-03-01T13:54:30;13.37;;;4.03;;
78563;SDS011;67856;47.754;19.088;2023-03-01T13:57:34;14.32;;;4.30;;
78563;SDS011;67856;47.754;19.088;2023-03-01T14:00:39;15.10;;;4.20;;
78563;SDS011;67856;47.754;19.088;2023-03-01T14:03:42;15.52;;;4.00;;
78563;SDS011;67856;47.754;19.088;2023-03-01T14:06:44;16.67;;;4.27;;
78563;SDS011;67856;47.754;19.088;2023-03-01T14:09:47;13.40;;;3.83;;
78563;SDS011;67856;47.754;19.088;2023-03-01T14:13:12;10.10;;;4.40;;
78563;SDS011;67856;47.754;19.088;2023-03-01T14:20:24;15.95;;;4.20;;
78563;SDS011;67856;47.754;19.088;2023-03-01T14:23:28;12.57;;;3.90;;
78563;SDS011;67856;47.754;19.088;2023-03-01T14:26:31;11.20;;;3.93;;
78563;SDS011;67856;47.754;19.088;2023-03-01T14:29:37;17.90;;;4.00;;
78563;SDS011;67856;47.754;19.088;2023-03-01T14:32:40;10.57;;;4.00;;
78563;SDS011;67856;47.754;19.088;2023-03-01T14:35:51;10.52;;;3.50;;
78563;SDS011;67856;47.754;19.088;2023-03-01T14:39:15;12.63;;;3.50;;
78563;SDS011;67856;47.754;19.088;2023-03-01T14:42:19;11.50;;;3.90;;
78563;SDS011;67856;47.754;19.088;2023-03-01T14:45:23;11.50;;;3.60;;
78563;SDS011;67856;47.754;19.088;2023-03-01T14:48:28;9.73;;;3.40;;
78563;SDS011;67856;47.754;19.088;2023-03-01T14:51:35;10.23;;;3.75;;
78563;SDS011;67856;47.754;19.088;2023-03-01T14:54:42;14.80;;;3.67;;
78563;SDS011;67856;47.754;19.088;2023-03-01T14:57:55;14.27;;;3.90;;
78563;SDS011;67856;47.754;19.088;2023-03-01T15:00:59;10.93;;;3.83;;
78563;SDS011;67856;47.754;19.088;2023-03-01T15:04:03;9.93;;;3.75;;
78563;SDS011;67856;47.754;19.088;2023-03-01T15:07:09;15.48;;;3.90;;
78563;SDS011;67856;47.754;19.088;2023-03-01T15:10:20;11.37;;;3.60;;
78563;SDS011;67856;47.754;19.088;2023-03-01T15:13:24;8.60;;;3.40;;
78563;SDS011;67856;47.754;19.088;2023-03-01T15:16:29;12.02;;;3.38;;
78563;SDS011;67856;47.754;19.088;2023-03-01T15:19:33;9.65;;;3.50;;
78563;SDS011;67856;47.754;19.088;2023-03-01T15:22:36;11.10;;;3.70;;
78563;SDS011;67856;47.754;19.088;2023-03-01T15:25:43;12.97;;;3.70;;
78563;SDS011;67856;47.754;19.088;2023-03-01T15:28:48;11.07;;;3.50;;
78563;SDS011;67856;47.754;19.088;2023-03-01T15:35:01;8.60;;;3.30;;
78563;SDS011;67856;47.754;19.088;2023-03-01T15:38:52;13.60;;;3.70;;
78563;SDS011;67856;47.754;19.088;2023-03-01T15:41:56;11.10;;;3.42;;
78563;SDS011;67856;47.754;19.088;2023-03-01T15:48:15;9.95;;;3.78;;
78563;SDS011;67856;47.754;19.088;2023-03-01T15:51:22;8.82;;;3.40;;
78563;SDS011;67856;47.754;19.088;2023-03-01T15:54:30;9.18;;;3.30;;
78563;SDS011;67856;47.754;19.088;2023-03-01T15:57:33;6.70;;;3.27;;
78563;SDS011;67856;47.754;19.088;2023-03-01T16:00:35;11.33;;;3.90;;
78563;SDS011;67856;47.754;19.088;2023-03-01T16:03:38;8.82;;;3.60;;
78563;SDS011;67856;47.754;19.088;2023-03-01T16:06:40;10.07;;;3.85;;
78563;SDS011;67856;47.754;19.088;2023-03-01T16:09:43;10.32;;;3.55;;
78563;SDS011;67856;47.754;19.088;2023-03-01T16:12:46;12.93;;;4.07;;
78563;SDS011;67856;47.754;19.088;2023-03-01T16:15:51;11.33;;;4.30;;
78563;SDS011;67856;47.754;19.088;2023-03-01T16:18:54;12.85;;;5.65;;
78563;SDS011;67856;47.754;19.088;2023-03-01T16:21:56;18.85;;;5.38;;
78563;SDS011;67856;47.754;19.088;2023-03-01T16:24:59;21.92;;;7.13;;
78563;SDS011;67856;47.754;19.088;2023-03-01T16:28:01;18.07;;;6.03;;
78563;SDS011;67856;47.754;19.088;2023-03-01T16:31:07;15.77;;;5.50;;
78563;SDS011;67856;47.754;19.088;2023-03-01T16:34:10;26.90;;;6.93;;
78563;SDS011;67856;47.754;19.088;2023-03-01T16:37:12;18.52;;;6.75;;
78563;SDS011;67856;47.754;19.088;2023-03-01T16:43:23;18.40;;;5.60;;
78563;SDS011;67856;47.754;19.088;2023-03-01T16:46:28;21.77;;;5.50;;
78563;SDS011;67856;47.754;19.088;2023-03-01T16:49:30;10.90;;;4.80;;
78563;SDS011;67856;47.754;19.088;2023-03-01T16:52:34;17.35;;;5.50;;
78563;SDS011;67856;47.754;19.088;2023-03-01T16:55:36;15.75;;;5.10;;
78563;SDS011;67856;47.754;19.088;2023-03-01T16:58:40;14.60;;;5.13;;
78563;SDS011;67856;47.754;19.088;2023-03-01T17:01:43;16.13;;;4.97;;
78563;SDS011;67856;47.754;19.088;2023-03-01T17:04:53;15.30;;;4.90;;
78563;SDS011;67856;47.754;19.088;2023-03-01T17:07:56;11.32;;;4.47;;
78563;SDS011;67856;47.754;19.088;2023-03-01T17:11:06;15.30;;;4.68;;
78563;SDS011;67856;47.754;19.088;2023-03-01T17:14:10;14.70;;;5.20;;
78563;SDS011;67856;47.754;19.088;2023-03-01T17:17:13;12.23;;;4.80;;
78563;SDS011;67856;47.754;19.088;2023-03-01T17:20:15;12.77;;;5.05;;
78563;SDS011;67856;47.754;19.088;2023-03-01T17:23:18;13.70;;;4.72;;
78563;SDS011;67856;47.754;19.088;2023-03-01T17:26:21;11.30;;;4.25;;
78563;SDS011;67856;47.754;19.088;2023-03-01T17:29:23;13.60;;;4.95;;
78563;SDS011;67856;47.754;19.088;2023-03-01T17:32:26;11.80;;;4.77;;
78563;SDS011;67856;47.754;19.088;2023-03-01T17:35:28;11.70;;;4.72;;
78563;SDS011;67856;47.754;19.088;2023-03-01T17:38:31;11.45;;;4.75;;
78563;SDS011;67856;47.754;19.088;2023-03-01T17:41:33;10.60;;;5.38;;
78563;SDS011;67856;47.754;19.088;2023-03-01T17:44:36;16.37;;;5.37;;
78563;SDS011;67856;47.754;19.088;2023-03-01T17:47:38;9.53;;;4.60;;
78563;SDS011;67856;47.754;19.088;2023-03-01T17:50:41;11.00;;;5.07;;
78563;SDS011;67856;47.754;19.088;2023-03-01T17:53:43;15.07;;;5.57;;
78563;SDS011;67856;47.754;19.088;2023-03-01T17:56:47;14.43;;;5.70;;
78563;SDS011;67856;47.754;19.088;2023-03-01T17:59:51;13.40;;;5.77;;
78563;SDS011;67856;47.754;19.088;2023-03-01T18:02:54;11.80;;;5.17;;
78563;SDS011;67856;47.754;19.088;2023-03-01T18:05:56;11.18;;;5.13;;
78563;SDS011;67856;47.754;19.088;2023-03-01T18:08:59;13.18;;;5.63;;
78563;SDS011;67856;47.754;19.088;2023-03-01T18:12:02;11.02;;;5.60;;
78563;SDS011;67856;47.754;19.088;2023-03-01T18:15:05;10.50;;;5.13;;
78563;SDS011;67856;47.754;19.088;2023-03-01T18:18:08;10.23;;;5.40;;
78563;SDS011;67856;47.754;19.088;2023-03-01T18:21:11;10.05;;;5.07;;
78563;SDS011;67856;47.754;19.088;2023-03-01T18:24:14;10.95;;;5.00;;
78563;SDS011;67856;47.754;19.088;2023-03-01T18:27:16;13.25;;;5.20;;
78563;SDS011;67856;47.754;19.088;2023-03-01T18:30:19;12.57;;;5.80;;
78563;SDS011;67856;47.754;19.088;2023-03-01T18:33:21;12.87;;;6.00;;
78563;SDS011;67856;47.754;19.088;2023-03-01T18:36:25;11.15;;;5.32;;
78563;SDS011;67856;47.754;19.088;2023-03-01T18:39:29;11.05;;;5.68;;
78563;SDS011;67856;47.754;19.088;2023-03-01T18:42:32;11.00;;;5.40;;
78563;SDS011;67856;47.754;19.088;2023-03-01T18:45:34;9.70;;;5.40;;
78563;SDS011;67856;47.754;19.088;2023-03-01T18:48:37;10.20;;;5.10;;
78563;SDS011;67856;47.754;19.088;2023-03-01T18:51:41;10.82;;;6.25;;
78563;SDS011;67856;47.754;19.088;2023-03-01T18:54:44;10.68;;;6.10;;
78563;SDS011;67856;47.754;19.088;2023-03-01T18:57:47;10.70;;;5.70;;
78563;SDS011;67856;47.754;19.088;2023-03-01T19:00:49;9.97;;;6.20;;
78563;SDS011;67856;47.754;19.088;2023-03-01T19:03:55;11.00;;;6.30;;
78563;SDS011;67856;47.754;19.088;2023-03-01T19:06:58;12.82;;;5.95;;
78563;SDS011;67856;47.754;19.088;2023-03-01T19:10:03;9.75;;;5.20;;
78563;SDS011;67856;47.754;19.088;2023-03-01T19:13:06;11.38;;;5.72;;
78563;SDS011;67856;47.754;19.088;2023-03-01T19:16:16;11.93;;;7.17;;
78563;SDS011;67856;47.754;19.088;2023-03-01T19:19:20;10.83;;;5.90;;
78563;SDS011;67856;47.754;19.088;2023-03-01T19:22:23;8.57;;;5.32;;
78563;SDS011;67856;47.754;19.088;2023-03-01T19:25:26;11.75;;;6.70;;
78563;SDS011;67856;47.754;19.088;2023-03-01T19:28:28;12.48;;;6.40;;
78563;SDS011;67856;47.754;19.088;2023-03-01T19:31:31;9.57;;;5.70;;
78563;SDS011;67856;47.754;19.088;2023-03-01T19:34:34;10.80;;;5.93;;
78563;SDS011;67856;47.754;19.088;2023-03-01T19:37:38;8.88;;;5.30;;
78563;SDS011;67856;47.754;19.088;2023-03-01T19:40:40;9.55;;;5.20;;
78563;SDS011;67856;47.754;19.088;2023-03-01T19:43:43;11.48;;;5.90;;
78563;SDS011;67856;47.754;19.088;2023-03-01T19:46:47;10.30;;;5.30;;
78563;SDS011;67856;47.754;19.088;2023-03-01T19:49:49;9.67;;;5.87;;
78563;SDS011;67856;47.754;19.088;2023-03-01T19:52:52;11.27;;;5.63;;
78563;SDS011;67856;47.754;19.088;2023-03-01T19:55:58;8.88;;;5.50;;
78563;SDS011;67856;47.754;19.088;2023-03-01T19:59:01;9.90;;;5.30;;
78563;SDS011;67856;47.754;19.088;2023-03-01T20:02:05;11.93;;;6.27;;